createdAt,value
2022-10-17T00:01:48.652Z,21.97
2022-10-17T00:07:11.576Z,17.43
2022-10-17T00:12:33.719Z,17.40
2022-10-17T00:17:55.889Z,17.40
2022-10-17T00:23:18.235Z,12.90
2022-10-17T00:28:40.620Z,15.33
2022-10-17T00:34:02.770Z,14.53
2022-10-17T00:39:24.969Z,17.77
2022-10-17T00:44:57.948Z,19.13
2022-10-17T00:50:21.252Z,17.67
2022-10-17T00:55:51.093Z,16.40
2022-10-17T01:01:14.569Z,18.30
2022-10-17T01:06:36.793Z,17.37
2022-10-17T01:12:29.569Z,21.87
2022-10-17T01:18:20.433Z,24.93
2022-10-17T01:24:02.755Z,26.77
2022-10-17T01:29:38.495Z,24.53
2022-10-17T01:35:20.763Z,19.70
2022-10-17T01:40:48.568Z,22.13
2022-10-17T01:46:18.792Z,21.53
2022-10-17T01:57:19.314Z,22.03
2022-10-17T02:02:43.885Z,19.70
2022-10-17T02:08:06.026Z,21.52
2022-10-17T02:13:57.428Z,24.70
2022-10-17T02:19:30.342Z,26.47
2022-10-17T02:25:09.032Z,22.90
2022-10-17T02:30:52.636Z,19.03
2022-10-17T02:36:19.047Z,17.33
2022-10-17T02:41:43.386Z,25.95
2022-10-17T02:47:10.395Z,18.67
2022-10-17T02:52:47.013Z,20.97
2022-10-17T02:58:20.401Z,21.35
2022-10-17T03:03:44.972Z,18.90
2022-10-17T03:09:07.475Z,17.40
2022-10-17T03:14:30.605Z,21.43
2022-10-17T03:19:52.752Z,21.80
2022-10-17T03:25:14.876Z,19.50
2022-10-17T03:30:37.103Z,19.67
2022-10-17T03:35:59.250Z,17.70
2022-10-17T03:41:22.613Z,15.90
2022-10-17T03:46:44.843Z,16.93
2022-10-17T03:52:07.007Z,18.90
2022-10-17T03:57:30.326Z,16.93
2022-10-17T04:02:54.275Z,18.93
2022-10-17T04:08:16.418Z,18.57
2022-10-17T04:13:38.549Z,18.77
2022-10-17T04:19:03.998Z,17.47
2022-10-17T04:24:29.415Z,22.67
2022-10-17T04:29:51.534Z,22.57
2022-10-17T04:35:13.903Z,17.07
2022-10-17T04:40:37.255Z,18.37
2022-10-17T04:46:00.544Z,16.95
2022-10-17T04:51:26.780Z,17.53
2022-10-17T04:56:49.887Z,17.57
2022-10-17T05:02:12.448Z,15.25
2022-10-17T05:07:34.669Z,18.17
2022-10-17T05:12:56.905Z,17.03
2022-10-17T05:18:19.910Z,17.33
2022-10-17T05:23:42.644Z,17.32
2022-10-17T05:29:06.588Z,17.77
2022-10-17T05:34:29.282Z,18.73
2022-10-17T05:39:51.714Z,20.83
2022-10-17T05:45:14.509Z,16.42
2022-10-17T05:50:37.687Z,24.02
2022-10-17T05:56:04.754Z,16.80
2022-10-17T06:01:28.140Z,18.10
2022-10-17T06:06:50.751Z,18.35
2022-10-17T06:12:13.807Z,20.75
2022-10-17T06:17:35.955Z,25.65
2022-10-17T06:22:58.127Z,24.85
2022-10-17T06:28:21.246Z,22.30
2022-10-17T06:33:43.697Z,24.27
2022-10-17T06:39:06.003Z,22.60
2022-10-17T06:44:29.787Z,29.85
2022-10-17T06:49:52.426Z,22.67
2022-10-17T06:55:16.901Z,22.25
2022-10-17T07:00:38.780Z,20.73
2022-10-17T07:06:05.068Z,23.40
2022-10-17T07:11:33.279Z,25.37
2022-10-17T07:16:57.579Z,26.77
2022-10-17T07:22:20.733Z,28.03
2022-10-17T07:27:43.472Z,25.00
2022-10-17T07:33:07.214Z,30.48
2022-10-17T07:38:30.400Z,25.70
2022-10-17T07:43:53.133Z,24.17
2022-10-17T07:49:15.839Z,27.10
2022-10-17T07:54:38.246Z,23.00
2022-10-17T08:00:00.409Z,28.05
2022-10-17T08:05:22.812Z,25.17
2022-10-17T08:10:45.517Z,29.02
2022-10-17T08:16:10.092Z,29.20
2022-10-17T08:21:32.707Z,31.07
2022-10-17T08:26:54.917Z,27.20
2022-10-17T08:32:17.128Z,31.87
2022-10-17T08:37:39.324Z,28.23
2022-10-17T08:43:21.536Z,27.55
2022-10-17T08:48:47.231Z,27.33
2022-10-17T08:54:20.686Z,29.53
2022-10-17T08:59:44.486Z,25.10
2022-10-17T09:05:50.776Z,25.45
2022-10-17T09:11:39.492Z,27.52
2022-10-17T09:17:26.222Z,26.95
2022-10-17T09:23:08.186Z,31.48
2022-10-17T09:28:46.441Z,25.02
2022-10-17T09:34:11.937Z,24.23
2022-10-17T09:39:41.550Z,24.55
2022-10-17T09:45:22.613Z,30.43
2022-10-17T09:51:25.644Z,26.90
2022-10-17T09:56:40.513Z,25.20
2022-10-17T10:02:21.293Z,28.27
2022-10-17T10:07:47.198Z,28.07
2022-10-17T10:13:29.372Z,25.30
2022-10-17T10:18:54.173Z,22.93
2022-10-17T10:24:30.877Z,29.23
2022-10-17T10:29:58.508Z,25.93
2022-10-17T10:35:30.983Z,30.87
2022-10-17T10:41:13.187Z,29.40
2022-10-17T10:46:41.495Z,29.72
2022-10-17T10:52:05.786Z,28.57
2022-10-17T10:57:32.970Z,26.75
2022-10-17T11:03:17.850Z,24.67
2022-10-17T11:08:54.859Z,29.23
2022-10-17T11:14:36.467Z,25.00
2022-10-17T11:20:18.043Z,23.63
2022-10-17T11:25:46.502Z,22.57
2022-10-17T11:31:26.222Z,20.47
2022-10-17T11:36:51.527Z,21.73
2022-10-17T11:42:18.735Z,20.23
2022-10-17T11:48:00.394Z,21.20
2022-10-17T11:53:30.150Z,21.47
2022-10-17T12:05:02.874Z,21.80
2022-10-17T12:10:48.567Z,25.48
2022-10-17T12:16:29.076Z,20.87
2022-10-17T12:22:14.492Z,21.50
2022-10-17T12:27:47.728Z,21.03
2022-10-17T12:33:24.885Z,20.30
2022-10-17T12:38:50.074Z,18.57
2022-10-17T12:44:14.971Z,22.13
2022-10-17T12:55:35.994Z,21.80
2022-10-17T13:01:24.324Z,20.30
2022-10-17T13:06:45.644Z,20.77
2022-10-17T13:12:10.985Z,30.73
2022-10-17T13:17:43.974Z,25.00
2022-10-17T13:23:07.232Z,22.80
2022-10-17T13:28:32.410Z,23.40
2022-10-17T13:34:01.212Z,21.27
2022-10-17T13:39:52.399Z,24.27
2022-10-17T13:44:55.602Z,24.63
2022-10-17T13:50:43.475Z,20.70
2022-10-17T13:56:22.820Z,20.32
2022-10-17T14:01:26.897Z,23.73
2022-10-17T14:06:56.370Z,21.62
2022-10-17T14:12:26.060Z,17.53
2022-10-17T14:17:50.182Z,18.65
2022-10-17T14:23:22.773Z,19.30
2022-10-17T14:28:41.053Z,19.30
2022-10-17T14:34:06.422Z,18.65
2022-10-17T14:39:33.144Z,19.57
2022-10-17T14:44:56.125Z,22.17
2022-10-17T14:50:32.321Z,22.93
2022-10-17T14:56:04.549Z,22.35
2022-10-17T15:01:26.794Z,26.17
2022-10-17T15:06:51.502Z,21.68
2022-10-17T15:12:23.567Z,23.32
2022-10-17T15:17:47.410Z,23.12
2022-10-17T15:23:11.705Z,20.80
2022-10-17T15:28:34.462Z,23.30
2022-10-17T15:33:57.693Z,25.57
2022-10-17T15:39:22.175Z,23.75
2022-10-17T15:44:44.987Z,29.55
2022-10-17T15:50:09.242Z,25.40
2022-10-17T15:55:32.368Z,23.65
2022-10-17T16:00:54.609Z,23.32
2022-10-17T16:06:16.873Z,22.15
2022-10-17T16:11:53.290Z,26.48
2022-10-17T16:17:17.704Z,22.50
2022-10-17T16:22:43.391Z,23.03
2022-10-17T16:28:08.939Z,23.77
2022-10-17T16:33:31.864Z,24.83
2022-10-17T16:38:55.340Z,23.13
2022-10-17T16:44:20.053Z,25.70
2022-10-17T16:49:45.200Z,22.02
2022-10-17T16:55:10.712Z,18.77
2022-10-17T17:00:33.513Z,22.67
2022-10-17T17:05:58.340Z,21.70
2022-10-17T17:11:22.441Z,27.23
2022-10-17T17:16:46.346Z,29.27
2022-10-17T17:22:08.513Z,25.17
2022-10-17T17:27:31.016Z,46.07
2022-10-17T17:32:53.620Z,26.45
2022-10-17T17:38:15.801Z,29.40
2022-10-17T17:43:38.093Z,25.03
2022-10-17T17:49:01.335Z,27.93
2022-10-17T17:54:23.475Z,29.18
2022-10-17T17:59:45.611Z,29.47
2022-10-17T18:05:08.496Z,28.60
2022-10-17T18:10:30.709Z,31.93
2022-10-17T18:15:58.006Z,33.93
2022-10-17T18:21:21.819Z,24.98
2022-10-17T18:26:45.579Z,32.90
2022-10-17T18:32:07.943Z,24.82
2022-10-17T18:37:31.084Z,25.15
2022-10-17T18:42:54.814Z,28.55
2022-10-17T18:48:17.595Z,28.92
2022-10-17T18:53:41.332Z,27.25
2022-10-17T18:59:04.625Z,32.20
2022-10-17T19:04:27.213Z,34.43
2022-10-17T19:09:49.431Z,27.48
2022-10-17T19:15:11.782Z,34.23
2022-10-17T19:20:33.938Z,28.20
2022-10-17T19:25:58.372Z,29.25
2022-10-17T19:31:26.302Z,31.03
2022-10-17T19:36:47.934Z,53.13
2022-10-17T19:42:10.167Z,37.43
2022-10-17T19:47:32.416Z,39.20
2022-10-17T19:52:54.661Z,35.23
2022-10-17T19:58:16.880Z,30.50
2022-10-17T20:03:39.989Z,33.10
2022-10-17T20:09:02.614Z,34.47
2022-10-17T20:14:24.750Z,31.40
2022-10-17T20:19:47.498Z,31.23
2022-10-17T20:25:10.296Z,30.65
2022-10-17T20:30:32.511Z,30.45
2022-10-17T20:35:56.315Z,32.27
2022-10-17T20:41:24.038Z,36.65
2022-10-17T20:47:00.713Z,31.57
2022-10-17T20:52:10.768Z,28.62
2022-10-17T20:57:32.904Z,31.17
2022-10-17T21:08:19.733Z,31.23
2022-10-17T21:13:41.904Z,35.40
2022-10-17T21:19:04.258Z,46.23
2022-10-17T21:24:29.223Z,41.48
2022-10-17T21:29:52.239Z,41.67
2022-10-17T21:35:14.417Z,37.70
2022-10-17T21:40:36.598Z,38.83
2022-10-17T21:45:58.841Z,38.17
2022-10-17T21:51:24.146Z,32.38
2022-10-17T21:56:47.113Z,37.75
2022-10-17T22:02:09.244Z,33.50
2022-10-17T22:07:32.266Z,40.88
2022-10-17T22:12:54.409Z,35.30
2022-10-17T22:18:17.648Z,33.55
2022-10-17T22:23:39.943Z,34.13
2022-10-17T22:29:02.261Z,32.10
2022-10-17T22:34:26.023Z,34.33
2022-10-17T22:39:48.248Z,30.95
2022-10-17T22:45:10.567Z,31.15
2022-10-17T22:50:35.943Z,29.50
2022-10-17T22:56:04.346Z,31.87
2022-10-17T23:01:29.758Z,36.90
2022-10-17T23:06:51.930Z,35.05
2022-10-17T23:12:14.787Z,32.83
2022-10-17T23:17:36.922Z,33.15
2022-10-17T23:22:59.166Z,37.78
2022-10-17T23:28:21.408Z,33.90
2022-10-17T23:33:45.265Z,35.58
2022-10-17T23:39:07.730Z,30.12
2022-10-17T23:44:30.445Z,31.87
2022-10-17T23:49:52.596Z,35.15
2022-10-17T23:55:16.460Z,35.63
